Time;durP1;ratioP1;P1;durP2;ratioP2;P2;SDS_P1;SDS_P2;PMS_P1;PMS_P2;Temp;Humidity;BMP_temperature;BMP_pressure;BME280_temperature;BME280_humidity;BME280_pressure;Samples;Min_cycle;Max_cycle;Signal;HPM_P1;HPM_P2
2021/09/02 00:00:28;;;;;;;4.30;2.10;;;;;;;27.52;36.67;97481.53;4992180;28;20100;-29
2021/09/02 00:02:54;;;;;;;2.38;2.10;;;;;;;27.51;36.78;97483.31;4984151;28;20037;-31
2021/09/02 00:05:19;;;;;;;3.20;1.92;;;;;;;27.51;36.65;97479.84;4988832;28;20092;-31
2021/09/02 00:07:44;;;;;;;2.25;2.00;;;;;;;27.52;36.78;97478.91;4988964;28;20029;-30
2021/09/02 00:10:10;;;;;;;2.08;1.85;;;;;;;27.50;36.66;97465.81;4991570;28;20041;-28
2021/09/02 00:12:36;;;;;;;3.60;1.77;;;;;;;27.51;36.64;97464.03;4988237;28;20032;-31
2021/09/02 00:15:01;;;;;;;3.47;2.20;;;;;;;27.50;36.72;97459.72;4986308;28;20033;-29
2021/09/02 00:17:27;;;;;;;2.95;2.20;;;;;;;27.51;36.71;97461.41;4985939;28;20935;-32
2021/09/02 00:19:52;;;;;;;2.75;2.05;;;;;;;27.50;36.60;97460.53;4982268;28;20030;-29
2021/09/02 00:22:18;;;;;;;3.72;1.95;;;;;;;27.50;36.65;97464.97;4996518;28;20480;-30
2021/09/02 00:24:43;;;;;;;2.42;1.80;;;;;;;27.50;36.61;97459.72;4990183;28;20030;-28
2021/09/02 00:27:08;;;;;;;2.58;1.80;;;;;;;27.49;36.74;97458.00;4986362;28;20501;-30
2021/09/02 00:29:34;;;;;;;2.22;1.80;;;;;;;27.50;36.62;97454.44;4983780;28;20042;-33
2021/09/02 00:31:59;;;;;;;2.83;1.92;;;;;;;27.49;36.60;97452.72;4990639;28;20045;-31
2021/09/02 00:34:24;;;;;;;3.60;2.20;;;;;;;27.50;36.60;97459.72;4991579;28;20033;-31
2021/09/02 00:36:50;;;;;;;2.97;2.25;;;;;;;27.49;36.59;97458.00;4987451;28;20022;-30
2021/09/02 00:39:16;;;;;;;2.90;2.10;;;;;;;27.49;36.53;97452.72;4987348;28;20041;-31
2021/09/02 00:41:41;;;;;;;3.50;2.38;;;;;;;27.49;36.69;97452.72;4989155;28;20107;-28
2021/09/02 00:44:07;;;;;;;2.20;1.80;;;;;;;27.49;36.61;97458.00;4991083;28;20391;-35
2021/09/02 00:46:32;;;;;;;2.55;1.85;;;;;;;27.47;36.54;97444.94;4993526;28;20085;-33
2021/09/02 00:48:57;;;;;;;2.75;1.50;;;;;;;27.48;36.70;97448.41;4994434;28;20523;-30
2021/09/02 00:51:23;;;;;;;2.80;2.05;;;;;;;27.48;36.65;97448.41;4993180;28;20503;-30
2021/09/02 00:53:49;;;;;;;2.03;1.90;;;;;;;27.47;36.64;97450.19;4994655;28;20693;-32
2021/09/02 00:56:15;;;;;;;1.95;1.80;;;;;;;27.47;36.66;97442.28;4992422;28;20121;-31
2021/09/02 00:58:41;;;;;;;2.92;2.00;;;;;;;27.48;36.71;97440.50;4990971;28;20033;-33
2021/09/02 01:01:06;;;;;;;2.60;1.98;;;;;;;27.48;36.67;97440.50;4991856;28;20077;-28
2021/09/02 01:03:34;;;;;;;3.67;2.10;;;;;;;27.47;36.73;97444.06;4993225;28;20841;-31
2021/09/02 01:05:59;;;;;;;2.65;1.55;;;;;;;27.47;36.63;97444.06;4996504;28;20535;-30
2021/09/02 01:08:25;;;;;;;1.83;1.52;;;;;;;27.47;36.65;97449.34;4993224;28;20161;-29
2021/09/02 01:10:50;;;;;;;2.55;1.95;;;;;;;27.47;36.75;97449.34;4987131;28;20396;-29
2021/09/02 01:13:22;;;;;;;3.15;1.98;;;;;;;27.44;36.64;97444.22;4991969;28;20045;-32
2021/09/02 01:15:48;;;;;;;2.65;1.88;;;;;;;27.46;36.58;97442.38;4990960;28;20580;-33
2021/09/02 01:18:13;;;;;;;2.63;1.95;;;;;;;27.46;36.60;97442.38;4990472;28;20040;-31
2021/09/02 01:20:38;;;;;;;2.35;1.85;;;;;;;27.46;36.75;97439.72;4994343;28;20084;-32
2021/09/02 01:23:04;;;;;;;4.00;1.88;;;;;;;27.46;36.57;97431.84;4995971;28;20033;-30
2021/09/02 01:25:32;;;;;;;2.30;1.73;;;;;;;27.46;36.56;97437.94;4989512;28;20480;-31
2021/09/02 01:27:59;;;;;;;2.70;2.00;;;;;;;27.46;36.58;97439.72;4986963;28;20026;-30
2021/09/02 01:30:25;;;;;;;2.25;1.83;;;;;;;27.46;36.62;97437.09;4993415;28;20034;-35
2021/09/02 01:32:51;;;;;;;2.20;1.90;;;;;;;27.46;36.60;97437.94;4995624;28;20033;-31
2021/09/02 01:35:16;;;;;;;2.63;1.90;;;;;;;27.45;36.61;97428.34;4992892;28;20038;-29
2021/09/02 01:37:44;;;;;;;2.97;2.15;;;;;;;27.46;36.63;97426.56;4993391;28;20076;-33
2021/09/02 01:40:13;;;;;;;2.45;1.75;;;;;;;27.46;36.65;97421.31;4991515;28;20124;-27
2021/09/02 01:42:38;;;;;;;4.32;1.80;;;;;;;27.46;36.65;97423.94;4993058;28;20036;-29
2021/09/02 01:45:04;;;;;;;1.95;1.60;;;;;;;27.45;36.69;97425.72;4996344;28;20030;-33
2021/09/02 01:47:29;;;;;;;2.05;1.70;;;;;;;27.45;36.58;97424.84;4991552;28;20900;-30
2021/09/02 01:49:56;;;;;;;2.33;2.00;;;;;;;27.45;36.66;97424.84;4990785;28;20045;-31
2021/09/02 01:52:21;;;;;;;2.25;1.58;;;;;;;27.44;36.64;97428.41;4971108;28;20037;-31
2021/09/02 01:54:47;;;;;;;2.72;1.77;;;;;;;27.45;36.75;97430.13;4987298;28;20117;-34
2021/09/02 01:57:13;;;;;;;2.50;1.80;;;;;;;27.45;36.53;97419.59;4972955;28;20024;-33
2021/09/02 01:59:39;;;;;;;1.90;1.52;;;;;;;27.44;36.71;97423.16;4987450;28;20349;-31
2021/09/02 02:02:04;;;;;;;2.80;1.85;;;;;;;27.44;36.65;97420.53;4970137;28;20034;-31
2021/09/02 02:04:30;;;;;;;1.98;1.60;;;;;;;27.44;36.48;97423.16;4991207;28;20091;-32
2021/09/02 02:06:55;;;;;;;3.42;1.70;;;;;;;27.43;36.67;97421.47;4987996;28;20073;-31
2021/09/02 02:09:20;;;;;;;3.00;1.60;;;;;;;27.44;36.50;97412.63;5005095;28;20594;-29
2021/09/02 02:11:46;;;;;;;2.50;1.75;;;;;;;27.42;36.59;97412.69;4994474;28;20030;-35
2021/09/02 02:14:11;;;;;;;2.13;1.60;;;;;;;27.42;36.64;97423.22;4988296;28;20121;-29
2021/09/02 02:16:37;;;;;;;2.80;1.90;;;;;;;27.42;36.56;97414.50;4987319;28;20052;-28
2021/09/02 02:19:02;;;;;;;2.85;1.80;;;;;;;27.41;36.59;97418.91;4990734;28;20156;-32
2021/09/02 02:21:28;;;;;;;2.30;1.75;;;;;;;27.42;36.58;97417.13;4992236;28;20076;-30
2021/09/02 02:23:53;;;;;;;2.53;1.90;;;;;;;27.42;36.72;97414.50;4989797;28;20025;-36
2021/09/02 02:26:19;;;;;;;1.70;1.60;;;;;;;27.42;36.65;97417.13;4991663;28;20037;-30
2021/09/02 02:28:44;;;;;;;3.28;1.90;;;;;;;27.41;36.58;97418.91;4991959;28;20574;-30
2021/09/02 02:31:09;;;;;;;2.92;1.90;;;;;;;27.42;36.58;97414.50;4987462;28;20042;-35
2021/09/02 02:33:35;;;;;;;1.52;1.42;;;;;;;27.40;36.64;97417.19;4994064;28;20045;-32
2021/09/02 02:36:00;;;;;;;2.10;1.60;;;;;;;27.36;36.52;97413.88;4992495;28;20456;-30
2021/09/02 02:38:26;;;;;;;1.90;1.70;;;;;;;27.40;36.67;97406.66;4985315;28;20092;-33
2021/09/02 02:40:51;;;;;;;3.65;1.70;;;;;;;27.39;36.63;97411.06;4990680;28;20025;-32
2021/09/02 02:43:17;;;;;;;4.53;2.55;;;;;;;27.40;36.42;97411.94;4984748;28;20034;-32
2021/09/02 02:45:42;;;;;;;5.03;2.42;;;;;;;27.39;36.29;97410.25;4983248;28;20041;-32
2021/09/02 02:48:07;;;;;;;2.03;1.80;;;;;;;27.38;36.37;97409.38;4977400;28;20054;-32
2021/09/02 02:50:33;;;;;;;4.43;2.00;;;;;;;27.37;36.50;97415.56;4981977;28;20037;-27
2021/09/02 02:52:58;;;;;;;1.75;1.45;;;;;;;27.36;36.42;97411.25;4993559;28;20087;-27
2021/09/02 02:55:24;;;;;;;2.30;1.80;;;;;;;27.37;36.57;97412.06;4975805;28;20551;-35
2021/09/02 02:57:49;;;;;;;2.30;1.90;;;;;;;27.36;36.52;97405.97;4983787;28;20021;-29
2021/09/02 03:00:15;;;;;;;3.13;1.85;;;;;;;27.37;36.62;97410.31;4991612;28;20397;-31
2021/09/02 03:02:40;;;;;;;2.35;1.92;;;;;;;27.36;36.56;97413.00;4982521;28;20080;-29
2021/09/02 03:05:08;;;;;;;2.60;1.88;;;;;;;27.36;36.64;97421.78;4983252;28;20041;-30
2021/09/02 03:07:34;;;;;;;2.05;1.70;;;;;;;27.36;36.61;97426.16;4992313;28;20026;-30
2021/09/02 03:09:59;;;;;;;1.83;1.60;;;;;;;27.36;36.60;97416.50;4992692;28;20477;-31
2021/09/02 03:12:25;;;;;;;2.10;1.70;;;;;;;27.37;36.62;97414.72;4991213;28;20030;-32
2021/09/02 03:14:50;;;;;;;1.88;1.67;;;;;;;27.36;36.58;97416.50;4991710;28;20030;-31
2021/09/02 03:17:16;;;;;;;3.63;1.80;;;;;;;27.35;36.60;97414.78;4987130;28;20050;-34
2021/09/02 03:19:41;;;;;;;2.35;2.08;;;;;;;27.35;36.31;97408.69;4996190;28;20587;-31
2021/09/02 03:22:06;;;;;;;4.35;1.80;;;;;;;27.34;36.49;97423.63;4983183;28;20546;-30
2021/09/02 03:24:32;;;;;;;3.67;1.48;;;;;;;27.34;36.50;97413.09;4991636;28;21165;-32
2021/09/02 03:26:57;;;;;;;2.00;1.52;;;;;;;27.34;36.42;97417.50;4983530;28;20037;-30
2021/09/02 03:29:22;;;;;;;2.47;1.50;;;;;;;27.34;36.46;97413.09;4990299;28;20034;-33
2021/09/02 03:31:48;;;;;;;2.92;1.90;;;;;;;27.33;36.51;97408.75;4989726;28;20084;-31
2021/09/02 03:34:13;;;;;;;2.22;1.60;;;;;;;27.34;36.46;97415.72;4988295;28;20065;-32
2021/09/02 03:36:41;;;;;;;2.03;1.58;;;;;;;27.34;36.62;97407.00;4990956;28;20568;-31
2021/09/02 03:39:06;;;;;;;3.13;2.00;;;;;;;27.32;36.58;97409.69;4986018;28;20042;-32
2021/09/02 03:41:31;;;;;;;1.88;1.67;;;;;;;27.33;36.51;97408.75;4990072;28;20716;-30
2021/09/02 03:43:57;;;;;;;1.90;1.38;;;;;;;27.32;36.54;97407.06;4992802;28;20033;-35
2021/09/02 03:46:22;;;;;;;1.70;1.60;;;;;;;27.31;36.63;97407.97;4990447;28;20018;-32
2021/09/02 03:48:48;;;;;;;2.63;1.73;;;;;;;27.31;36.65;97410.59;4993318;28;20027;-29
2021/09/02 03:51:13;;;;;;;2.75;1.73;;;;;;;27.32;36.55;97414.97;4982314;28;20042;-30
2021/09/02 03:53:38;;;;;;;4.22;2.08;;;;;;;27.32;36.38;97409.69;4993177;28;20037;-32
2021/09/02 03:56:04;;;;;;;2.85;1.50;;;;;;;27.31;36.43;97407.97;4992381;28;20473;-30
2021/09/02 03:58:29;;;;;;;2.53;1.60;;;;;;;27.31;36.44;97410.59;4988745;28;20037;-29
2021/09/02 04:00:54;;;;;;;3.97;1.60;;;;;;;27.31;36.59;97418.50;4988139;28;20495;-30
2021/09/02 04:03:20;;;;;;;2.10;1.63;;;;;;;27.30;36.47;97406.28;4992359;28;20034;-32
2021/09/02 04:05:45;;;;;;;2.33;1.70;;;;;;;27.30;36.60;97411.53;4985285;28;20033;-30
2021/09/02 04:08:11;;;;;;;2.75;1.50;;;;;;;27.30;36.40;97408.91;4992374;28;20605;-31
2021/09/02 04:10:36;;;;;;;6.95;1.80;;;;;;;27.30;36.67;97411.53;4992444;28;20041;-29
2021/09/02 04:13:01;;;;;;;4.85;1.45;;;;;;;27.30;36.51;97414.16;4986131;28;20038;-29
2021/09/02 04:15:27;;;;;;;3.70;1.60;;;;;;;27.30;36.58;97416.78;4990297;28;20635;-30
2021/09/02 04:17:52;;;;;;;3.28;1.70;;;;;;;27.30;36.58;97416.78;4994110;28;20068;-33
2021/09/02 04:20:18;;;;;;;1.65;1.48;;;;;;;27.30;36.60;97413.34;4994287;28;20045;-29
2021/09/02 04:22:43;;;;;;;3.08;1.52;;;;;;;27.30;36.60;97416.78;4992997;28;20018;-30
2021/09/02 04:25:09;;;;;;;2.90;1.48;;;;;;;27.29;36.52;97409.84;4993044;28;20613;-30
2021/09/02 04:27:34;;;;;;;1.95;1.50;;;;;;;27.28;36.63;97413.41;4989136;28;20053;-32
2021/09/02 04:30:00;;;;;;;2.13;1.50;;;;;;;27.29;36.57;97408.97;4994244;28;20033;-33
2021/09/02 04:32:25;;;;;;;3.65;1.50;;;;;;;27.29;36.53;97414.22;4994993;28;20042;-31
2021/09/02 04:34:50;;;;;;;2.25;1.52;;;;;;;27.29;36.50;97409.84;4990588;28;20026;-32
2021/09/02 04:37:16;;;;;;;2.80;1.52;;;;;;;27.29;36.57;97415.09;4988037;28;20077;-31
2021/09/02 04:39:41;;;;;;;2.40;1.60;;;;;;;27.29;36.45;97420.38;4990595;28;20034;-29
2021/09/02 04:42:07;;;;;;;3.05;1.60;;;;;;;27.27;36.59;97417.81;4994736;28;20041;-34
2021/09/02 04:44:32;;;;;;;4.53;1.70;;;;;;;27.28;36.54;97418.66;4990810;28;20118;-34
2021/09/02 04:46:58;;;;;;;2.88;1.60;;;;;;;27.28;36.57;97423.94;4989158;28;20398;-29
2021/09/02 04:49:23;;;;;;;2.17;1.60;;;;;;;27.27;36.54;97438.03;4992955;28;20049;-33
2021/09/02 04:51:48;;;;;;;3.47;1.50;;;;;;;27.29;36.65;97428.25;4990945;28;20030;-31
2021/09/02 04:54:14;;;;;;;2.08;1.30;;;;;;;27.27;36.53;97428.31;4994223;28;20030;-33
2021/09/02 04:56:39;;;;;;;1.75;1.60;;;;;;;27.28;36.72;97426.56;4994369;28;20037;-30
2021/09/02 04:59:05;;;;;;;1.88;1.50;;;;;;;27.27;36.58;97416.97;4991084;28;20030;-33
2021/09/02 05:01:30;;;;;;;2.38;1.40;;;;;;;27.27;36.66;97419.59;4995727;28;20029;-31
2021/09/02 05:03:55;;;;;;;3.35;1.30;;;;;;;27.26;36.58;97426.63;4995950;28;20084;-32
2021/09/02 05:06:21;;;;;;;2.25;1.50;;;;;;;27.26;36.66;97425.75;4990521;28;20029;-30
2021/09/02 05:08:46;;;;;;;2.33;1.65;;;;;;;27.26;36.55;97436.28;4985370;28;20030;-31
2021/09/02 05:11:11;;;;;;;1.83;1.50;;;;;;;27.25;36.63;97434.59;4997618;28;20037;-34
2021/09/02 05:13:37;;;;;;;1.48;1.35;;;;;;;27.25;36.60;97438.09;4992562;28;20558;-35
2021/09/02 05:16:03;;;;;;;2.50;1.45;;;;;;;27.25;36.57;97434.59;4991938;28;20034;-34
2021/09/02 05:18:28;;;;;;;2.15;1.25;;;;;;;27.24;36.48;97433.72;4990294;28;20283;-31
2021/09/02 05:20:53;;;;;;;2.55;1.50;;;;;;;27.25;36.67;97429.34;4990090;28;20045;-30
2021/09/02 05:23:19;;;;;;;2.40;1.35;;;;;;;27.24;36.64;97439.00;4993671;28;20030;-31
2021/09/02 05:25:44;;;;;;;2.70;1.42;;;;;;;27.24;36.62;97425.00;4990136;28;20033;-31
2021/09/02 05:28:10;;;;;;;2.08;1.20;;;;;;;27.24;36.52;97432.91;4989487;28;20610;-30
2021/09/02 05:30:35;;;;;;;4.63;1.55;;;;;;;27.23;36.57;97423.31;4959902;28;20029;-34
2021/09/02 05:33:01;;;;;;;4.03;1.40;;;;;;;27.24;36.59;97438.16;4994267;28;20033;-28
2021/09/02 05:35:26;;;;;;;2.28;1.65;;;;;;;27.23;36.57;97434.66;4973117;28;20034;-34
2021/09/02 05:37:52;;;;;;;2.08;1.40;;;;;;;27.23;36.73;97425.94;4956162;28;20327;-29
2021/09/02 05:40:17;;;;;;;1.80;1.13;;;;;;;27.23;36.60;97431.19;4985619;28;20041;-29
2021/09/02 05:42:43;;;;;;;3.10;1.27;;;;;;;27.23;36.60;97437.28;4976657;28;20042;-28
2021/09/02 05:45:08;;;;;;;2.72;1.45;;;;;;;27.24;36.50;97438.16;4975000;28;20038;-30
2021/09/02 05:47:34;;;;;;;1.88;1.13;;;;;;;27.23;36.68;97429.41;4972307;28;20164;-33
2021/09/02 05:49:59;;;;;;;3.28;1.40;;;;;;;27.22;36.58;97430.34;4986253;28;20030;-32
2021/09/02 05:52:25;;;;;;;1.95;1.23;;;;;;;27.23;36.53;97437.28;4988789;28;20029;-31
2021/09/02 05:54:54;;;;;;;1.17;1.08;;;;;;;27.23;36.69;97436.47;4990506;28;20026;-31
2021/09/02 05:57:21;;;;;;;1.95;1.50;;;;;;;27.23;36.48;97437.28;4978456;28;20025;-31
2021/09/02 05:59:46;;;;;;;2.17;1.20;;;;;;;27.22;36.53;97425.06;4988561;28;20073;-32
2021/09/02 06:02:11;;;;;;;1.92;1.40;;;;;;;27.22;36.59;97435.59;4980117;28;20049;-33
2021/09/02 06:04:37;;;;;;;1.42;1.15;;;;;;;27.22;36.52;97429.47;4974241;28;20026;-32
2021/09/02 06:07:02;;;;;;;1.88;1.20;;;;;;;27.22;36.61;97425.06;4994373;28;20037;-30
2021/09/02 06:09:28;;;;;;;1.83;1.30;;;;;;;27.22;36.59;97426.84;4976315;28;20037;-33
2021/09/02 06:11:53;;;;;;;2.42;1.02;;;;;;;27.22;36.62;97429.47;4993573;28;20579;-32
2021/09/02 06:14:19;;;;;;;1.50;1.20;;;;;;;27.23;36.44;97431.19;4982331;28;20033;-28
2021/09/02 06:16:44;;;;;;;1.83;1.38;;;;;;;27.22;36.62;97418.94;4989060;28;20022;-30
2021/09/02 06:19:09;;;;;;;1.50;0.88;;;;;;;27.21;36.62;97428.63;4995220;28;20034;-36
2021/09/02 06:21:35;;;;;;;2.25;1.27;;;;;;;27.21;36.64;97427.78;4995231;28;20939;-29
2021/09/02 06:24:00;;;;;;;1.80;1.35;;;;;;;27.22;36.55;97430.34;4988866;28;20033;-29
2021/09/02 06:26:26;;;;;;;1.40;1.23;;;;;;;27.22;36.62;97432.09;4991575;28;20038;-32
2021/09/02 06:28:51;;;;;;;2.08;1.30;;;;;;;27.23;36.55;97441.72;4988116;28;20115;-31
2021/09/02 06:31:16;;;;;;;2.72;1.38;;;;;;;27.22;36.80;97442.63;4988502;28;20026;-30
2021/09/02 06:33:42;;;;;;;2.42;1.40;;;;;;;27.22;36.67;97445.25;4993473;28;20026;-34
2021/09/02 06:36:07;;;;;;;2.00;1.38;;;;;;;27.21;36.65;97444.44;4991570;28;20139;-28
2021/09/02 06:38:32;;;;;;;3.88;2.08;;;;;;;27.23;36.52;97444.34;4985281;28;20396;-31
2021/09/02 06:40:58;;;;;;;3.85;2.28;;;;;;;27.24;36.53;97440.78;4985737;28;20439;-33
2021/09/02 06:43:23;;;;;;;7.32;2.03;;;;;;;27.25;36.37;97439.84;4983286;28;20085;-29
2021/09/02 06:45:49;;;;;;;7.25;2.35;;;;;;;27.25;36.56;97440.72;4984685;28;20034;-30
2021/09/02 06:48:14;;;;;;;5.30;2.75;;;;;;;27.26;36.23;97446.81;4985299;28;20034;-32
2021/09/02 06:50:39;;;;;;;9.15;3.75;;;;;;;27.24;35.74;97444.25;4984549;28;20042;-30
2021/09/02 06:53:05;;;;;;;9.40;3.83;;;;;;;27.23;35.25;97454.88;4977583;28;20322;-31
2021/09/02 06:55:30;;;;;;;13.50;4.95;;;;;;;27.22;34.91;97454.03;4970407;28;20120;-30
2021/09/02 06:57:56;;;;;;;8.80;4.50;;;;;;;27.20;34.54;97448.00;4963416;28;20033;-29
2021/09/02 07:00:21;;;;;;;9.68;4.40;;;;;;;27.19;34.41;97450.69;4968990;28;20099;-31
2021/09/02 07:02:47;;;;;;;7.90;4.60;;;;;;;27.17;34.20;97447.28;4987727;28;20030;-30
2021/09/02 07:05:12;;;;;;;7.43;4.50;;;;;;;27.15;33.95;97449.13;4988468;28;20033;-34
2021/09/02 07:07:37;;;;;;;11.98;5.30;;;;;;;27.12;34.00;97450.97;4986106;28;20025;-31
2021/09/02 07:10:04;;;;;;;8.60;4.57;;;;;;;27.12;33.69;97456.22;4989465;28;20041;-29
2021/09/02 07:12:29;;;;;;;7.57;4.82;;;;;;;27.10;33.80;97452.84;4984280;28;20041;-30
2021/09/02 07:14:54;;;;;;;11.45;4.85;;;;;;;27.07;33.80;97447.72;4987062;28;20037;-34
2021/09/02 07:17:20;;;;;;;9.05;4.68;;;;;;;27.08;33.94;97449.41;4984185;28;20030;-30
2021/09/02 07:19:45;;;;;;;9.95;4.70;;;;;;;27.07;33.78;97458.25;4987675;28;21120;-31
2021/09/02 07:22:11;;;;;;;9.30;5.28;;;;;;;27.06;33.54;97459.16;4988353;28;20033;-31
2021/09/02 07:24:36;;;;;;;10.20;4.95;;;;;;;27.05;33.26;97460.09;4989400;28;20408;-31
2021/09/02 07:27:03;;;;;;;8.35;4.95;;;;;;;27.05;33.29;97464.50;4986721;28;20033;-31
2021/09/02 07:29:29;;;;;;;9.70;4.65;;;;;;;27.04;33.42;97455.75;4984167;28;20018;-29
2021/09/02 07:31:54;;;;;;;12.88;5.22;;;;;;;27.04;33.67;97463.63;4986032;28;20037;-35
2021/09/02 07:34:20;;;;;;;9.63;4.88;;;;;;;27.03;33.56;97456.69;4985850;28;20550;-30
2021/09/02 07:36:45;;;;;;;8.90;4.82;;;;;;;27.03;33.53;97464.56;4985956;28;20053;-31
2021/09/02 07:39:11;;;;;;;10.18;5.47;;;;;;;27.03;33.59;97459.31;4984783;28;20033;-30
2021/09/02 07:41:36;;;;;;;10.55;4.65;;;;;;;27.02;33.65;97454.97;4984232;28;20053;-32
2021/09/02 07:44:02;;;;;;;8.75;4.78;;;;;;;27.03;33.77;97467.19;4984985;28;20029;-30
2021/09/02 07:46:27;;;;;;;11.07;5.15;;;;;;;27.03;33.68;97464.56;4984783;28;20025;-29
2021/09/02 07:48:53;;;;;;;8.38;4.38;;;;;;;27.03;33.85;97464.56;4985670;28;20026;-33
2021/09/02 07:51:18;;;;;;;5.45;4.68;;;;;;;27.04;33.99;97471.53;4989682;28;20030;-31
2021/09/02 07:53:44;;;;;;;14.43;5.35;;;;;;;27.05;33.73;97470.63;4987112;28;21713;-35
2021/09/02 07:56:09;;;;;;;10.55;4.82;;;;;;;27.06;33.78;97472.31;4987497;28;20052;-32
2021/09/02 07:58:35;;;;;;;8.73;5.00;;;;;;;27.05;33.85;97472.41;4988021;28;20405;-29
2021/09/02 08:01:01;;;;;;;7.93;4.88;;;;;;;27.05;33.83;97475.88;4988515;28;20030;-31
2021/09/02 08:03:26;;;;;;;8.98;4.60;;;;;;;27.06;33.92;97477.59;4991003;28;20563;-30
2021/09/02 08:05:52;;;;;;;8.32;4.72;;;;;;;27.08;34.02;97480.97;4988811;28;20042;-31
2021/09/02 08:08:18;;;;;;;8.00;4.72;;;;;;;27.08;34.04;97485.41;4989259;28;20085;-35
2021/09/02 08:10:44;;;;;;;9.32;5.30;;;;;;;27.08;34.00;97477.53;4992956;28;20061;-34
2021/09/02 08:13:09;;;;;;;8.57;5.00;;;;;;;27.09;33.96;97481.84;4986871;28;20076;-31
2021/09/02 08:15:36;;;;;;;6.78;4.88;;;;;;;27.09;33.94;97481.84;4986909;28;20732;-29
2021/09/02 08:18:01;;;;;;;6.95;4.88;;;;;;;27.10;33.94;97478.28;4989499;28;20041;-30
2021/09/02 08:20:27;;;;;;;7.05;5.03;;;;;;;27.10;33.88;97473.88;4989234;28;20037;-31
2021/09/02 08:22:52;;;;;;;7.57;4.97;;;;;;;27.11;34.04;97482.63;5000048;28;20038;-30
2021/09/02 08:25:18;;;;;;;7.50;4.43;;;;;;;27.10;34.01;97473.88;4986503;28;20026;-30
2021/09/02 08:27:45;;;;;;;10.45;6.53;;;;;;;27.07;32.76;97474.03;4988397;28;20153;-30
2021/09/02 08:30:12;;;;;;;13.88;6.20;;;;;;;27.05;32.30;97475.03;4970321;28;20075;-30
2021/09/02 08:32:37;;;;;;;8.25;5.90;;;;;;;27.00;32.06;97476.09;4987868;28;20030;-31
2021/09/02 08:35:06;;;;;;;7.88;5.32;;;;;;;26.94;31.87;97472.88;4986970;28;20030;-33
2021/09/02 08:37:31;;;;;;;8.00;5.38;;;;;;;26.88;31.78;97469.59;4937630;28;1521047;-31
2021/09/02 08:39:56;;;;;;;8.73;5.93;;;;;;;26.82;31.58;97469.91;4988810;28;20044;-33
2021/09/02 08:42:22;;;;;;;9.48;5.78;;;;;;;26.77;31.82;97471.88;4988657;28;20033;-31
2021/09/02 08:44:47;;;;;;;9.02;5.82;;;;;;;26.73;32.11;97471.16;4989890;28;20512;-34
2021/09/02 08:47:13;;;;;;;7.18;5.57;;;;;;;26.71;31.72;97466.91;4988098;28;20033;-33
2021/09/02 08:49:38;;;;;;;11.02;5.38;;;;;;;26.68;31.75;97478.41;4990238;28;20030;-31
2021/09/02 08:52:04;;;;;;;9.95;5.57;;;;;;;26.64;31.89;97476.84;4989488;28;20033;-30
2021/09/02 08:54:31;;;;;;;7.57;5.50;;;;;;;26.61;31.67;97471.72;4987952;28;20030;-28
2021/09/02 08:56:57;;;;;;;9.68;5.18;;;;;;;26.59;31.78;97471.78;4990161;28;21638;-30
2021/09/02 08:59:22;;;;;;;10.77;5.45;;;;;;;26.57;31.74;97464.91;4989211;28;20022;-30
2021/09/02 09:01:48;;;;;;;8.60;5.28;;;;;;;26.53;31.71;97464.19;4988937;28;20025;-31
2021/09/02 09:04:14;;;;;;;8.23;5.15;;;;;;;26.52;31.62;97459.00;4991784;28;20474;-32
2021/09/02 09:06:41;;;;;;;10.98;5.88;;;;;;;26.52;31.83;97466.91;4997110;28;20034;-33
2021/09/02 09:09:13;;;;;;;21.48;5.07;;;;;;;26.50;31.83;97464.34;4989763;28;20057;-31
2021/09/02 09:11:48;;;;;;;9.57;5.53;;;;;;;26.50;32.05;97466.13;4989640;28;20559;-30
2021/09/02 09:14:18;;;;;;;7.53;4.47;;;;;;;26.52;32.07;97473.00;4994534;28;20038;-33
2021/09/02 09:16:47;;;;;;;13.05;5.40;;;;;;;26.54;32.32;97463.28;4998385;28;20026;-32
2021/09/02 09:19:36;;;;;;;10.88;5.93;;;;;;;26.55;32.46;97462.34;4996578;28;20080;-33
2021/09/02 09:22:02;;;;;;;14.02;6.07;;;;;;;26.58;32.33;97462.22;4997854;28;20072;-31
2021/09/02 09:25:01;;;;;;;13.32;6.40;;;;;;;26.59;32.79;97458.66;4993668;28;20403;-29
2021/09/02 09:27:39;;;;;;;17.48;6.32;;;;;;;26.63;32.98;97463.78;4965791;28;20045;-27
2021/09/02 09:30:12;;;;;;;19.02;7.28;;;;;;;26.65;32.99;97451.44;4995465;28;20320;-33
2021/09/02 09:32:50;;;;;;;21.05;6.95;;;;;;;26.67;33.08;97454.84;4995476;28;20033;-36
2021/09/02 09:35:17;;;;;;;14.95;7.07;;;;;;;26.67;33.08;97450.44;4995924;28;20045;-35
2021/09/02 09:37:43;;;;;;;15.73;6.15;;;;;;;26.71;33.12;97445.88;4993011;28;22739;-31
2021/09/02 09:40:15;;;;;;;16.65;6.78;;;;;;;26.74;33.31;97443.13;4991302;28;20037;-31
2021/09/02 09:43:23;;;;;;;14.30;6.13;;;;;;;26.75;33.24;97447.44;4996105;28;20030;-31
2021/09/02 09:45:57;;;;;;;12.05;6.30;;;;;;;26.77;33.42;97440.31;4969188;28;20045;-31
2021/09/02 09:48:22;;;;;;;16.48;6.63;;;;;;;26.79;33.56;97435.00;4997853;28;20045;-30
2021/09/02 09:51:06;;;;;;;12.65;5.85;;;;;;;26.81;33.46;97430.53;4995400;28;20100;-31
2021/09/02 09:53:32;;;;;;;12.57;6.03;;;;;;;26.81;33.69;97428.72;4994129;28;20025;-29
2021/09/02 09:55:57;;;;;;;13.35;5.80;;;;;;;26.84;33.59;97435.63;4997453;28;20742;-30
2021/09/02 09:58:24;;;;;;;12.35;5.43;;;;;;;26.85;33.76;97427.66;5012425;28;20026;-30
2021/09/02 10:00:51;;;;;;;10.40;5.90;;;;;;;26.86;33.71;97429.38;4991891;28;20029;-30
2021/09/02 10:03:16;;;;;;;11.70;5.32;;;;;;;26.88;33.88;97424.91;4979832;28;20026;-29
2021/09/02 10:05:41;;;;;;;10.48;5.32;;;;;;;26.90;33.79;97423.97;4975960;28;20112;-29
2021/09/02 10:08:07;;;;;;;11.93;5.72;;;;;;;26.91;34.05;97429.16;4995705;28;20088;-30
2021/09/02 10:10:32;;;;;;;9.63;5.20;;;;;;;26.92;33.93;97422.97;4995419;28;20500;-34
2021/09/02 10:12:58;;;;;;;13.50;5.55;;;;;;;26.94;33.98;97423.78;4993121;28;20069;-28
2021/09/02 10:15:23;;;;;;;9.52;4.82;;;;;;;26.95;34.13;97428.13;5012492;28;20029;-29
2021/09/02 10:17:49;;;;;;;14.27;5.47;;;;;;;26.97;34.02;97425.41;4994819;28;20495;-30
2021/09/02 10:20:19;;;;;;;11.95;5.18;;;;;;;26.98;34.16;97427.13;4975638;28;20073;-31
2021/09/02 10:22:45;;;;;;;12.13;5.78;;;;;;;26.98;34.06;97422.72;4995640;28;20030;-35
2021/09/02 10:25:37;;;;;;;10.93;5.43;;;;;;;27.00;34.14;97426.13;4980619;28;20691;-30
2021/09/02 10:28:05;;;;;;;8.18;5.05;;;;;;;27.02;34.10;97412.91;4995420;28;20837;-29
2021/09/02 10:30:30;;;;;;;8.05;5.05;;;;;;;27.02;34.25;97423.41;4995210;28;20087;-28
2021/09/02 10:32:57;;;;;;;8.60;4.80;;;;;;;27.03;34.26;97425.13;4994889;28;20582;-30
2021/09/02 10:35:25;;;;;;;9.02;5.00;;;;;;;27.04;34.33;97424.19;4992607;28;20026;-30
2021/09/02 10:37:51;;;;;;;7.93;4.43;;;;;;;27.05;34.36;97418.00;4991737;28;20023;-31
2021/09/02 10:40:17;;;;;;;7.03;4.57;;;;;;;27.07;34.27;97424.03;4995602;28;20121;-36
2021/09/02 10:42:47;;;;;;;8.50;4.78;;;;;;;27.06;34.45;97417.09;4995946;28;20134;-29
2021/09/02 10:45:24;;;;;;;8.38;4.72;;;;;;;27.08;34.39;97411.75;4993728;28;20038;-31
2021/09/02 10:47:50;;;;;;;7.10;4.32;;;;;;;27.08;34.48;97409.94;4996793;28;20021;-34
2021/09/02 10:50:22;;;;;;;9.90;4.80;;;;;;;27.09;34.60;97409.06;4993748;28;20535;-34
2021/09/02 10:52:50;;;;;;;8.85;4.80;;;;;;;27.10;34.56;97416.00;4998393;28;20033;-31
2021/09/02 10:55:28;;;;;;;15.48;4.50;;;;;;;27.09;34.54;97406.41;4993622;28;20117;-34
2021/09/02 10:57:54;;;;;;;7.88;4.80;;;;;;;27.12;34.62;97400.16;4990124;28;20088;-31
2021/09/02 11:00:41;;;;;;;5.82;4.10;;;;;;;27.12;34.55;97398.34;4987621;28;20034;-30
2021/09/02 11:03:14;;;;;;;7.20;4.07;;;;;;;27.14;34.65;97390.41;4999390;28;20041;-29
2021/09/02 11:05:55;;;;;;;5.88;3.95;;;;;;;27.14;34.79;97393.03;4992053;28;20036;-33
2021/09/02 11:08:37;;;;;;;5.70;3.80;;;;;;;27.13;34.77;97389.56;4995802;28;20761;-30
2021/09/02 11:11:22;;;;;;;5.00;3.65;;;;;;;27.16;34.84;97382.44;4991465;28;20449;-29
2021/09/02 11:13:49;;;;;;;7.15;4.03;;;;;;;27.17;34.85;97386.75;4993018;28;20040;-31
2021/09/02 11:16:16;;;;;;;7.55;4.32;;;;;;;27.17;34.85;97385.00;4992376;28;20042;-32
2021/09/02 11:18:45;;;;;;;7.03;4.38;;;;;;;27.19;35.04;97390.19;4990224;28;20544;-29
2021/09/02 11:21:15;;;;;;;6.35;4.20;;;;;;;27.19;35.02;97377.03;4988945;28;20157;-29
2021/09/02 11:23:41;;;;;;;14.32;4.63;;;;;;;27.20;34.98;97383.97;4980194;28;20037;-29
2021/09/02 11:26:07;;;;;;;10.90;4.40;;;;;;;27.19;34.63;97377.84;4989550;28;20112;-32
2021/09/02 11:28:45;;;;;;;7.43;4.10;;;;;;;27.19;34.58;97383.13;4986335;28;20083;-28